createdAt,value
2019-03-16T00:02:05.375Z,7.83
2019-03-16T00:04:37.849Z,4.97
2019-03-16T00:07:10.522Z,8.57
2019-03-16T00:09:43.008Z,3.93
2019-03-16T00:12:15.361Z,5.03
2019-03-16T00:14:47.859Z,8.23
2019-03-16T00:17:23.807Z,6.93
2019-03-16T00:19:54.484Z,6.13
2019-03-16T00:22:26.802Z,6.57
2019-03-16T00:24:58.747Z,5.57
2019-03-16T00:27:31.042Z,2.73
2019-03-16T00:30:03.405Z,5.20
2019-03-16T00:32:35.889Z,7.63
2019-03-16T00:35:08.257Z,9.07
2019-03-16T00:37:40.872Z,6.93
2019-03-16T00:40:14.016Z,5.80
2019-03-16T00:42:46.301Z,7.03
2019-03-16T00:45:18.679Z,5.47
2019-03-16T00:47:51.040Z,7.20
2019-03-16T00:50:23.408Z,10.30
2019-03-16T00:52:55.329Z,9.43
2019-03-16T00:55:27.643Z,8.50
2019-03-16T00:58:00.019Z,5.27
2019-03-16T01:00:32.391Z,6.50
2019-03-16T01:03:04.866Z,6.30
2019-03-16T01:05:37.232Z,6.83
2019-03-16T01:08:09.611Z,8.60
2019-03-16T01:10:41.975Z,5.90
2019-03-16T01:13:14.374Z,7.00
2019-03-16T01:15:46.724Z,6.43
2019-03-16T01:18:18.989Z,6.53
2019-03-16T01:20:50.940Z,7.40
2019-03-16T01:23:23.225Z,8.93
2019-03-16T01:25:55.412Z,5.17
2019-03-16T01:28:27.817Z,6.67
2019-03-16T01:31:00.136Z,8.43
2019-03-16T01:33:32.616Z,9.13
2019-03-16T01:36:04.568Z,5.20
2019-03-16T01:38:36.834Z,4.63
2019-03-16T01:41:09.214Z,4.43
2019-03-16T01:43:41.574Z,4.00
2019-03-16T01:46:13.521Z,4.67
2019-03-16T01:48:45.813Z,5.63
2019-03-16T01:51:18.185Z,8.80
2019-03-16T01:53:50.563Z,6.87
2019-03-16T01:56:22.982Z,4.97
2019-03-16T01:58:55.307Z,9.23
2019-03-16T02:01:27.673Z,7.63
2019-03-16T02:04:00.259Z,5.63
2019-03-16T02:06:32.621Z,4.53
2019-03-16T02:09:06.838Z,7.73
2019-03-16T02:11:39.216Z,6.97
2019-03-16T02:14:11.589Z,10.43
2019-03-16T02:16:43.950Z,8.77
2019-03-16T02:19:16.329Z,5.27
2019-03-16T02:21:48.744Z,8.53
2019-03-16T02:24:21.125Z,3.90
2019-03-16T02:26:53.440Z,9.33
2019-03-16T02:29:25.704Z,9.23
2019-03-16T02:31:58.086Z,5.23
2019-03-16T02:34:29.989Z,7.57
2019-03-16T02:37:02.321Z,8.00
2019-03-16T02:39:34.682Z,10.17
2019-03-16T02:42:06.620Z,4.27
2019-03-16T02:44:38.927Z,4.33
2019-03-16T02:47:12.312Z,7.07
2019-03-16T02:49:44.592Z,8.00
2019-03-16T02:52:16.969Z,4.77
2019-03-16T02:54:49.227Z,4.87
2019-03-16T02:57:21.601Z,5.77
2019-03-16T02:59:53.876Z,10.60
2019-03-16T03:02:25.834Z,6.97
2019-03-16T03:04:58.207Z,5.00
2019-03-16T03:07:30.585Z,9.13
2019-03-16T03:10:02.486Z,4.93
2019-03-16T03:12:34.819Z,5.40
2019-03-16T03:15:08.665Z,4.27
2019-03-16T03:17:40.997Z,6.27
2019-03-16T03:20:13.256Z,10.50
2019-03-16T03:22:45.293Z,7.17
2019-03-16T03:25:17.581Z,6.43
2019-03-16T03:27:49.959Z,10.73
2019-03-16T03:30:23.041Z,3.73
2019-03-16T03:32:55.559Z,6.43
2019-03-16T03:35:29.395Z,4.63
2019-03-16T03:38:03.346Z,6.73
2019-03-16T03:40:35.716Z,9.97
2019-03-16T03:43:08.085Z,9.47
2019-03-16T03:45:40.454Z,10.47
2019-03-16T03:48:12.828Z,7.93
2019-03-16T03:50:45.197Z,8.27
2019-03-16T03:53:17.569Z,10.00
2019-03-16T03:55:49.702Z,9.20
2019-03-16T03:58:22.113Z,10.80
2019-03-16T04:00:54.388Z,8.23
2019-03-16T04:03:26.753Z,9.77
2019-03-16T04:05:59.023Z,5.30
2019-03-16T04:08:31.447Z,8.83
2019-03-16T04:11:03.574Z,6.67
2019-03-16T04:13:35.852Z,8.40
2019-03-16T04:16:08.206Z,5.77
2019-03-16T04:18:40.576Z,9.83
2019-03-16T04:21:13.053Z,6.80
2019-03-16T04:23:45.416Z,9.27
2019-03-16T04:26:17.861Z,7.73
2019-03-16T04:28:49.838Z,8.53
2019-03-16T04:31:22.117Z,7.10
2019-03-16T04:33:54.330Z,9.03
2019-03-16T04:36:26.674Z,5.90
2019-03-16T04:38:59.043Z,8.83
2019-03-16T04:41:31.303Z,9.53
2019-03-16T04:44:03.675Z,8.33
2019-03-16T04:46:36.780Z,7.43
2019-03-16T04:49:09.144Z,10.33
2019-03-16T04:51:41.508Z,4.07
2019-03-16T04:54:13.888Z,9.03
2019-03-16T04:56:46.145Z,5.67
2019-03-16T04:59:18.529Z,7.53
2019-03-16T05:01:50.440Z,5.73
2019-03-16T05:04:22.863Z,9.57
2019-03-16T05:06:55.340Z,6.27
2019-03-16T05:09:27.808Z,11.67
2019-03-16T05:12:00.489Z,8.00
2019-03-16T05:14:32.953Z,8.37
2019-03-16T05:17:05.222Z,8.83
2019-03-16T05:19:37.605Z,7.60
2019-03-16T05:22:09.869Z,10.43
2019-03-16T05:24:42.346Z,4.97
2019-03-16T05:27:14.612Z,7.00
2019-03-16T05:29:46.878Z,9.53
2019-03-16T05:32:19.158Z,7.17
2019-03-16T05:34:56.420Z,9.57
2019-03-16T05:37:25.436Z,9.73
2019-03-16T05:39:58.413Z,7.57
2019-03-16T05:42:30.787Z,7.37
2019-03-16T05:45:03.313Z,9.80
2019-03-16T05:47:35.289Z,10.60
2019-03-16T05:50:11.515Z,9.67
2019-03-16T05:52:44.069Z,10.17
2019-03-16T05:55:16.294Z,4.40
2019-03-16T05:57:48.616Z,9.33
2019-03-16T06:00:20.973Z,5.43
2019-03-16T06:02:53.657Z,9.13
2019-03-16T06:05:26.025Z,12.93
2019-03-16T06:07:58.403Z,11.77
2019-03-16T06:10:30.869Z,7.53
2019-03-16T06:13:03.252Z,15.53
2019-03-16T06:15:35.635Z,11.43
2019-03-16T06:18:08.103Z,10.93
2019-03-16T06:20:40.483Z,9.97
2019-03-16T06:23:13.809Z,7.17
2019-03-16T06:25:46.136Z,8.77
2019-03-16T06:28:18.515Z,7.77
2019-03-16T06:30:50.883Z,8.60
2019-03-16T06:33:23.145Z,8.63
2019-03-16T06:35:55.518Z,5.90
2019-03-16T06:38:27.851Z,5.00
2019-03-16T06:41:00.284Z,8.67
2019-03-16T06:43:32.640Z,10.03
2019-03-16T06:46:05.004Z,6.90
2019-03-16T06:48:37.381Z,9.70
2019-03-16T06:51:09.745Z,6.73
2019-03-16T06:53:41.659Z,10.63
2019-03-16T06:56:13.983Z,11.33
2019-03-16T06:58:46.256Z,13.23
2019-03-16T07:01:18.624Z,14.33
2019-03-16T07:03:50.912Z,11.87
2019-03-16T07:06:23.272Z,7.50
2019-03-16T07:08:55.541Z,7.97
2019-03-16T07:11:27.913Z,8.23
2019-03-16T07:14:00.273Z,9.17
2019-03-16T07:16:32.657Z,10.13
2019-03-16T07:19:05.029Z,9.50
2019-03-16T07:21:37.005Z,5.90
2019-03-16T07:24:09.361Z,9.90
2019-03-16T07:26:41.832Z,9.63
2019-03-16T07:29:14.211Z,10.73
2019-03-16T07:31:46.574Z,10.17
2019-03-16T07:34:18.951Z,7.30
2019-03-16T07:36:50.929Z,10.73
2019-03-16T07:39:23.275Z,10.77
2019-03-16T07:41:55.656Z,9.07
2019-03-16T07:44:28.031Z,9.33
2019-03-16T07:47:00.405Z,11.17
2019-03-16T07:49:33.791Z,10.60
2019-03-16T07:52:05.746Z,7.40
2019-03-16T07:54:38.030Z,9.87
2019-03-16T07:57:10.005Z,10.80
2019-03-16T07:59:41.925Z,13.80
2019-03-16T08:02:14.219Z,6.43
2019-03-16T08:04:46.601Z,9.43
2019-03-16T08:07:18.967Z,6.23
2019-03-16T08:09:50.866Z,9.17
2019-03-16T08:12:23.070Z,10.93
2019-03-16T08:14:55.361Z,6.00
2019-03-16T08:17:27.829Z,10.40
2019-03-16T08:20:00.359Z,10.20
2019-03-16T08:22:33.097Z,14.10
2019-03-16T08:25:05.769Z,10.40
2019-03-16T08:27:38.143Z,6.93
2019-03-16T08:30:13.752Z,9.50
2019-03-16T08:32:46.168Z,8.53
2019-03-16T08:35:18.425Z,9.20
2019-03-16T08:37:50.800Z,10.67
2019-03-16T08:40:23.176Z,10.93
2019-03-16T08:42:55.649Z,9.77
2019-03-16T08:45:27.921Z,13.83
2019-03-16T08:48:02.607Z,18.80
2019-03-16T08:50:34.201Z,13.23
2019-03-16T08:53:06.273Z,8.10
2019-03-16T08:55:38.534Z,9.40
2019-03-16T08:58:10.903Z,15.60
2019-03-16T09:00:43.286Z,9.60
2019-03-16T09:03:17.385Z,9.53
2019-03-16T09:05:49.659Z,7.93
2019-03-16T09:08:22.104Z,7.67
2019-03-16T09:10:54.405Z,10.03
2019-03-16T09:13:26.874Z,12.53
2019-03-16T09:15:59.156Z,11.97
2019-03-16T09:18:31.519Z,7.53
2019-03-16T09:21:03.794Z,8.97
2019-03-16T09:23:36.273Z,11.90
2019-03-16T09:26:08.183Z,8.43
2019-03-16T09:28:40.148Z,10.17
2019-03-16T09:31:12.274Z,8.40
2019-03-16T09:33:44.727Z,8.13
2019-03-16T09:36:16.635Z,16.97
2019-03-16T09:38:48.954Z,12.87
2019-03-16T09:41:21.229Z,10.13
2019-03-16T09:43:53.807Z,11.30
2019-03-16T09:46:26.178Z,17.63
2019-03-16T09:48:58.660Z,6.27
2019-03-16T09:51:30.929Z,13.70
2019-03-16T09:54:03.350Z,14.47
2019-03-16T09:56:35.669Z,11.07
2019-03-16T09:59:08.066Z,7.10
2019-03-16T10:01:40.312Z,10.00
2019-03-16T10:04:12.688Z,10.67
2019-03-16T10:06:45.046Z,11.17
2019-03-16T10:09:17.431Z,13.40
2019-03-16T10:11:49.358Z,13.20
2019-03-16T10:14:21.431Z,11.67
2019-03-16T10:16:53.727Z,11.83
2019-03-16T10:19:26.100Z,8.90
2019-03-16T10:21:58.470Z,11.83
2019-03-16T10:24:30.951Z,10.13
2019-03-16T10:27:03.222Z,7.27
2019-03-16T10:29:35.592Z,7.23
2019-03-16T10:32:08.487Z,6.83
2019-03-16T10:34:40.836Z,13.77
2019-03-16T10:37:13.107Z,6.97
2019-03-16T10:39:45.476Z,10.37
2019-03-16T10:42:17.863Z,10.20
2019-03-16T10:44:50.278Z,12.97
2019-03-16T10:47:22.603Z,12.23
2019-03-16T10:49:54.973Z,12.00
2019-03-16T10:52:27.290Z,13.10
2019-03-16T10:55:00.382Z,10.20
2019-03-16T10:57:32.805Z,11.60
2019-03-16T11:00:11.007Z,12.60
2019-03-16T11:02:42.915Z,8.87
2019-03-16T11:05:15.238Z,11.07
2019-03-16T11:07:47.615Z,8.60
2019-03-16T11:10:20.082Z,9.07
2019-03-16T11:12:52.370Z,12.77
2019-03-16T11:15:24.828Z,14.30
2019-03-16T11:17:57.104Z,11.10
2019-03-16T11:20:29.578Z,13.70
2019-03-16T11:23:04.315Z,10.83
2019-03-16T11:25:36.768Z,8.00
2019-03-16T11:28:09.038Z,11.27
2019-03-16T11:30:41.423Z,14.67
2019-03-16T11:33:13.787Z,14.13
2019-03-16T11:35:46.169Z,10.70
2019-03-16T11:38:18.307Z,8.73
2019-03-16T11:40:50.807Z,7.13
2019-03-16T11:43:23.173Z,12.20
2019-03-16T11:45:55.544Z,9.30
2019-03-16T11:48:27.820Z,8.43
2019-03-16T11:51:00.289Z,9.40
2019-03-16T11:53:32.211Z,9.07
2019-03-16T11:56:16.988Z,8.27
2019-03-16T11:58:38.437Z,9.33
2019-03-16T12:01:10.808Z,15.13
2019-03-16T12:03:43.187Z,17.87
2019-03-16T12:06:15.550Z,9.63
2019-03-16T12:08:47.857Z,8.43
2019-03-16T12:11:20.293Z,5.23
2019-03-16T12:13:52.668Z,12.27
2019-03-16T12:16:25.140Z,9.20
2019-03-16T12:18:57.517Z,7.83
2019-03-16T12:21:29.469Z,6.87
2019-03-16T12:24:01.746Z,6.87
2019-03-16T12:26:34.117Z,7.77
2019-03-16T12:29:06.428Z,7.70
2019-03-16T12:31:38.747Z,6.20
2019-03-16T12:34:11.022Z,6.90
2019-03-16T12:36:43.501Z,8.90
2019-03-16T12:39:15.876Z,9.93
2019-03-16T12:41:48.247Z,9.63
2019-03-16T12:44:20.618Z,9.73
2019-03-16T12:46:53.505Z,9.33
2019-03-16T12:49:25.672Z,8.83
2019-03-16T12:51:58.150Z,11.40
2019-03-16T12:54:30.811Z,8.40
2019-03-16T12:57:03.199Z,10.17
2019-03-16T12:59:46.333Z,10.77
2019-03-16T13:02:09.581Z,7.10
2019-03-16T13:04:41.943Z,9.07
2019-03-16T13:07:13.906Z,9.07
2019-03-16T13:09:46.292Z,6.70
2019-03-16T13:12:18.663Z,6.57
2019-03-16T13:14:51.027Z,8.20
2019-03-16T13:17:23.554Z,8.57
2019-03-16T13:19:55.862Z,7.30
2019-03-16T13:22:28.245Z,6.07
2019-03-16T13:25:00.606Z,7.60
2019-03-16T13:27:33.035Z,10.40
2019-03-16T13:30:14.469Z,11.73
2019-03-16T13:32:46.843Z,8.13
2019-03-16T13:35:19.134Z,6.50
2019-03-16T13:37:51.585Z,8.40
2019-03-16T13:40:23.855Z,7.67
2019-03-16T13:42:56.227Z,8.07
2019-03-16T13:45:28.610Z,6.83
2019-03-16T13:48:00.611Z,11.37
2019-03-16T13:50:32.941Z,9.37
2019-03-16T13:53:05.620Z,6.30
2019-03-16T13:55:37.980Z,6.57
2019-03-16T13:58:10.361Z,9.43
2019-03-16T14:00:42.738Z,8.73
2019-03-16T14:03:15.725Z,12.03
2019-03-16T14:05:48.093Z,6.33
2019-03-16T14:08:20.156Z,11.37
2019-03-16T14:10:52.090Z,9.20
2019-03-16T14:13:24.941Z,8.93
2019-03-16T14:15:56.838Z,5.90
2019-03-16T14:18:29.236Z,5.60
2019-03-16T14:21:01.609Z,14.43
2019-03-16T14:23:33.670Z,9.90
2019-03-16T14:26:06.038Z,7.33
2019-03-16T14:28:38.420Z,5.60
2019-03-16T14:31:10.436Z,8.60
2019-03-16T14:33:42.855Z,13.60
2019-03-16T14:36:15.347Z,10.87
2019-03-16T14:38:48.009Z,11.63
2019-03-16T14:41:20.385Z,11.23
2019-03-16T14:43:53.055Z,20.60
2019-03-16T14:46:26.446Z,10.53
2019-03-16T14:48:58.446Z,15.20
2019-03-16T14:51:30.837Z,9.67
2019-03-16T14:54:03.701Z,9.20
2019-03-16T14:57:02.185Z,10.97
2019-03-16T14:59:34.852Z,13.13
2019-03-16T15:02:07.285Z,13.50
2019-03-16T15:04:39.259Z,9.17
2019-03-16T15:07:12.622Z,13.60
2019-03-16T15:09:45.061Z,9.93
2019-03-16T15:12:17.432Z,11.00
2019-03-16T15:14:49.802Z,8.40
2019-03-16T15:17:25.251Z,9.30
2019-03-16T15:19:55.765Z,10.10
2019-03-16T15:22:28.044Z,7.70
2019-03-16T15:25:00.528Z,7.57
2019-03-16T15:27:34.224Z,6.77
2019-03-16T15:30:20.916Z,10.37
2019-03-16T15:32:54.223Z,8.10
2019-03-16T15:35:26.187Z,9.17
2019-03-16T15:37:58.562Z,9.93
2019-03-16T15:40:30.937Z,6.33
2019-03-16T15:43:03.301Z,4.37
2019-03-16T15:45:35.248Z,9.37
2019-03-16T15:48:07.609Z,7.97
2019-03-16T15:50:40.010Z,9.77
2019-03-16T15:53:12.374Z,11.17
2019-03-16T15:55:44.744Z,5.73
2019-03-16T15:58:17.123Z,7.07
2019-03-16T16:00:49.495Z,4.40
2019-03-16T16:03:21.766Z,5.00
2019-03-16T16:05:54.168Z,4.77
2019-03-16T16:08:26.508Z,6.03
2019-03-16T16:11:01.192Z,6.93
2019-03-16T16:13:32.781Z,5.90
2019-03-16T16:16:04.755Z,8.57
2019-03-16T16:18:37.118Z,6.80
2019-03-16T16:21:09.058Z,7.30
2019-03-16T16:23:41.349Z,8.60
2019-03-16T16:26:13.722Z,6.70
2019-03-16T16:28:45.991Z,6.70
2019-03-16T16:31:19.499Z,5.83
2019-03-16T16:33:51.765Z,4.67
2019-03-16T16:36:24.650Z,6.57
2019-03-16T16:38:57.021Z,6.00
2019-03-16T16:41:29.394Z,5.53
2019-03-16T16:44:01.299Z,7.40
2019-03-16T16:46:33.624Z,9.63
2019-03-16T16:49:05.536Z,7.87
2019-03-16T16:51:37.855Z,4.03
2019-03-16T16:54:10.181Z,6.57
2019-03-16T16:56:43.694Z,4.20
2019-03-16T16:59:15.999Z,4.93
2019-03-16T17:01:48.377Z,7.13
2019-03-16T17:04:29.903Z,10.30
2019-03-16T17:07:03.455Z,4.17
2019-03-16T17:09:36.954Z,4.47
2019-03-16T17:12:09.321Z,4.17
2019-03-16T17:14:41.593Z,6.70
2019-03-16T17:17:13.967Z,8.70
2019-03-16T17:19:46.337Z,7.93
2019-03-16T17:22:18.712Z,6.17
2019-03-16T17:24:50.979Z,8.50
2019-03-16T17:27:22.923Z,4.90
2019-03-16T17:29:55.207Z,6.93
2019-03-16T17:32:27.587Z,9.37
2019-03-16T17:34:59.854Z,9.03
2019-03-16T17:37:32.224Z,11.10
2019-03-16T17:40:06.026Z,6.40
2019-03-16T17:42:37.970Z,7.27
2019-03-16T17:45:15.273Z,5.37
2019-03-16T17:47:47.654Z,7.47
2019-03-16T17:50:19.553Z,7.37
2019-03-16T17:52:51.885Z,5.90
2019-03-16T17:55:24.257Z,8.27
2019-03-16T17:57:56.629Z,5.50
2019-03-16T18:00:28.540Z,6.47
2019-03-16T18:03:00.855Z,7.37
2019-03-16T18:05:33.128Z,6.20
2019-03-16T18:08:05.079Z,9.40
2019-03-16T18:10:39.549Z,7.23
2019-03-16T18:13:14.483Z,5.60
2019-03-16T18:15:47.881Z,6.13
2019-03-16T18:18:20.211Z,5.13
2019-03-16T18:20:52.482Z,7.27
2019-03-16T18:23:24.433Z,4.90
2019-03-16T18:25:56.712Z,8.23
2019-03-16T18:28:29.086Z,6.73
2019-03-16T18:31:01.350Z,8.50
2019-03-16T18:33:33.725Z,10.57
2019-03-16T18:36:05.995Z,9.30
2019-03-16T18:38:37.938Z,9.83
2019-03-16T18:41:10.221Z,12.10
2019-03-16T18:43:42.172Z,11.13
2019-03-16T18:46:14.459Z,20.53
2019-03-16T18:48:46.835Z,18.20
2019-03-16T18:51:19.207Z,26.03
2019-03-16T18:53:51.576Z,23.17
2019-03-16T18:56:23.844Z,23.77
2019-03-16T18:58:56.220Z,24.53
2019-03-16T19:01:28.486Z,36.30
2019-03-16T19:04:00.863Z,41.90
2019-03-16T19:06:32.778Z,36.17
2019-03-16T19:09:06.834Z,35.53
2019-03-16T19:11:39.208Z,35.70
2019-03-16T19:14:11.582Z,47.83
2019-03-16T19:16:43.846Z,42.63
2019-03-16T19:19:16.216Z,37.67
2019-03-16T19:21:48.588Z,42.37
2019-03-16T19:24:20.967Z,31.93
2019-03-16T19:26:54.352Z,42.63
2019-03-16T19:29:26.276Z,35.30
2019-03-16T19:31:58.695Z,34.40
2019-03-16T19:34:31.063Z,43.47
2019-03-16T19:37:03.433Z,35.50
2019-03-16T19:39:35.806Z,35.03
2019-03-16T19:42:15.160Z,36.30
2019-03-16T19:45:05.958Z,27.30
2019-03-16T19:47:49.679Z,31.20
2019-03-16T19:50:30.101Z,22.47
2019-03-16T19:53:14.684Z,29.53
2019-03-16T19:56:03.990Z,24.57
2019-03-16T19:58:59.779Z,25.20
2019-03-16T20:01:31.156Z,24.20
2019-03-16T20:04:07.133Z,21.53
2019-03-16T20:06:47.496Z,19.30
2019-03-16T20:09:29.879Z,18.90
2019-03-16T20:12:18.158Z,21.60
2019-03-16T20:14:53.804Z,18.27
2019-03-16T20:17:29.115Z,13.80
2019-03-16T20:20:08.432Z,23.90
2019-03-16T20:22:45.045Z,19.33
2019-03-16T20:25:27.527Z,13.17
2019-03-16T20:28:08.424Z,14.13
2019-03-16T20:30:47.839Z,19.70
2019-03-16T20:33:28.322Z,23.60
2019-03-16T20:36:03.971Z,21.03
2019-03-16T20:38:44.629Z,24.10
2019-03-16T20:41:35.174Z,19.50
2019-03-16T20:43:57.235Z,19.53
2019-03-16T20:46:29.600Z,23.60
2019-03-16T20:49:01.530Z,16.57
2019-03-16T20:51:33.489Z,18.57
2019-03-16T20:54:06.068Z,27.90
2019-03-16T20:56:38.389Z,14.80
2019-03-16T20:59:12.046Z,16.60
2019-03-16T21:01:44.448Z,16.63
2019-03-16T21:04:17.128Z,17.90
2019-03-16T21:06:49.548Z,12.40
2019-03-16T21:09:21.864Z,17.43
2019-03-16T21:11:54.249Z,20.37
2019-03-16T21:14:26.822Z,12.00
2019-03-16T21:16:59.294Z,12.77
2019-03-16T21:19:31.973Z,14.50
2019-03-16T21:22:14.176Z,11.53
2019-03-16T21:24:47.899Z,13.50
2019-03-16T21:27:20.250Z,12.67
2019-03-16T21:29:52.619Z,16.60
2019-03-16T21:32:24.535Z,14.37
2019-03-16T21:34:56.855Z,21.73
2019-03-16T21:37:29.121Z,17.07
2019-03-16T21:40:01.074Z,15.20
2019-03-16T21:42:33.354Z,17.70
2019-03-16T21:45:07.889Z,16.27
2019-03-16T21:47:40.030Z,15.37
2019-03-16T21:50:15.079Z,17.00
2019-03-16T21:52:47.453Z,16.07
2019-03-16T21:55:19.822Z,17.50
2019-03-16T21:57:51.745Z,18.60
2019-03-16T22:00:24.158Z,19.90
2019-03-16T22:02:56.427Z,16.93
2019-03-16T22:05:28.801Z,20.00
2019-03-16T22:08:01.179Z,20.27
2019-03-16T22:10:35.078Z,23.90
2019-03-16T22:13:07.507Z,14.73
2019-03-16T22:15:39.689Z,17.57
2019-03-16T22:18:11.987Z,19.20
2019-03-16T22:20:44.364Z,17.00
2019-03-16T22:23:16.734Z,20.33
2019-03-16T22:25:49.309Z,20.33
2019-03-16T22:28:21.232Z,14.40
2019-03-16T22:30:53.542Z,15.57
2019-03-16T22:33:25.968Z,23.27
2019-03-16T22:35:58.364Z,20.23
2019-03-16T22:38:30.657Z,18.37
2019-03-16T22:41:04.063Z,23.20
2019-03-16T22:43:36.323Z,15.23
2019-03-16T22:46:08.693Z,17.37
2019-03-16T22:48:41.067Z,21.93
2019-03-16T22:51:13.436Z,18.67
2019-03-16T22:53:45.768Z,24.87
2019-03-16T22:56:18.182Z,19.87
2019-03-16T23:02:23.330Z,21.23
2019-03-16T23:05:02.678Z,22.43
2019-03-16T23:07:35.355Z,20.23
2019-03-16T23:10:12.950Z,15.90
2019-03-16T23:12:45.322Z,11.80
2019-03-16T23:15:17.236Z,14.90
2019-03-16T23:17:49.555Z,20.07
2019-03-16T23:20:21.928Z,18.17
2019-03-16T23:22:54.355Z,20.73
2019-03-16T23:25:26.672Z,13.33
2019-03-16T23:27:59.043Z,19.87
2019-03-16T23:30:30.970Z,20.27
2019-03-16T23:36:04.424Z,17.13
2019-03-16T23:38:50.997Z,12.80
2019-03-16T23:41:25.925Z,11.07
2019-03-16T23:43:58.225Z,13.93
2019-03-16T23:46:30.175Z,11.83
2019-03-16T23:49:02.095Z,14.50
2019-03-16T23:51:34.423Z,8.57
2019-03-16T23:54:06.691Z,10.97
2019-03-16T23:56:39.061Z,13.87
2019-03-16T23:59:11.332Z,15.40
